Time;durP1;ratioP1;P1;durP2;ratioP2;P2;SDS_P1;SDS_P2;PMS_P1;PMS_P2;Temp;Humidity;BMP_temperature;BMP_pressure;BME280_temperature;BME280_humidity;BME280_pressure;Samples;Min_cycle;Max_cycle;Signal;HPM_P1;HPM_P2
2021/08/08 00:01:08;;;;;;;4.93;2.45;;;;;;;23.99;52.35;99462.34;5074700;28;20421;-78
2021/08/08 00:03:34;;;;;;;4.72;2.42;;;;;;;24.06;52.09;99459.38;5074636;28;20035;-78
2021/08/08 00:06:00;;;;;;;6.47;2.70;;;;;;;23.77;53.12;99457.25;5073224;28;20040;-81
2021/08/08 00:08:29;;;;;;;3.58;2.40;;;;;;;24.03;52.02;99461.06;5074670;28;20402;-78
2021/08/08 00:10:55;;;;;;;3.05;2.10;;;;;;;24.11;52.13;99469.22;5074786;28;20024;-80
2021/08/08 00:13:21;;;;;;;5.10;2.25;;;;;;;24.08;51.84;99468.09;5074362;28;20075;-80
2021/08/08 00:15:47;;;;;;;3.60;2.08;;;;;;;24.23;51.50;99468.53;5074580;28;20378;-79
2021/08/08 00:18:13;;;;;;;3.58;2.10;;;;;;;23.79;52.90;99467.97;5074027;28;20036;-79
2021/08/08 00:20:39;;;;;;;5.18;2.38;;;;;;;24.10;51.80;99482.38;5073145;28;20389;-88
2021/08/08 00:23:05;;;;;;;2.92;2.10;;;;;;;24.01;52.29;99471.06;5072821;28;20024;-79
2021/08/08 00:25:31;;;;;;;5.15;2.40;;;;;;;23.91;52.36;99480.47;5072685;28;20086;-80
2021/08/08 00:27:56;;;;;;;4.10;1.98;;;;;;;23.98;52.31;99481.09;5073238;28;20059;-85
2021/08/08 00:30:22;;;;;;;5.10;2.10;;;;;;;24.01;52.32;99473.84;5072965;28;20064;-79
2021/08/08 00:32:48;;;;;;;5.15;2.13;;;;;;;23.68;53.02;99481.38;5073905;28;20064;-90
2021/08/08 00:35:14;;;;;;;4.85;1.77;;;;;;;23.76;52.94;99488.38;5072628;28;20123;-79
2021/08/08 00:37:44;;;;;;;4.10;2.55;;;;;;;23.90;52.42;99476.13;5073927;28;20475;-79
2021/08/08 00:40:13;;;;;;;;;;;;;;;23.72;53.39;99488.44;5073400;28;20028;-86
2021/08/08 00:42:42;;;;;;;4.72;2.28;;;;;;;24.05;52.22;99488.50;5074336;28;19944;-79
2021/08/08 00:45:08;;;;;;;4.28;2.20;;;;;;;23.91;52.45;99481.25;5072738;28;20433;-89
2021/08/08 00:47:34;;;;;;;4.55;2.20;;;;;;;23.69;53.10;99480.94;5073732;28;20086;-79
2021/08/08 00:50:00;;;;;;;10.77;3.08;;;;;;;23.85;52.62;99491.34;5074091;28;20036;-80
2021/08/08 00:52:26;;;;;;;5.88;2.80;;;;;;;24.05;52.02;99491.31;5072406;28;20025;-89
2021/08/08 00:54:52;;;;;;;8.57;2.92;;;;;;;24.11;51.69;99480.38;5072376;28;20098;-80
2021/08/08 00:57:18;;;;;;;4.45;2.50;;;;;;;24.36;50.80;99486.19;5072697;28;20033;-80
2021/08/08 00:59:43;;;;;;;5.18;2.63;;;;;;;24.31;51.05;99487.44;5073610;28;20086;-79
2021/08/08 01:02:10;;;;;;;5.30;2.97;;;;;;;24.23;51.11;99486.06;5073568;28;20111;-91
2021/08/08 01:04:39;;;;;;;5.97;3.05;;;;;;;24.10;51.83;99487.97;5072219;28;20089;-89
2021/08/08 01:07:14;;;;;;;4.88;2.58;;;;;;;24.07;51.84;99481.25;5073371;28;20024;-89
2021/08/08 01:09:44;;;;;;;7.68;3.58;;;;;;;24.33;50.78;99495.41;5072028;28;20089;-79
2021/08/08 01:12:11;;;;;;;7.57;3.05;;;;;;;24.14;51.53;99499.84;5073226;28;20082;-81
2021/08/08 01:14:39;;;;;;;6.43;3.38;;;;;;;24.33;51.13;99501.00;5071862;28;20108;-92
2021/08/08 01:17:04;;;;;;;6.65;3.47;;;;;;;24.25;51.21;99505.94;5073150;28;20108;-79
2021/08/08 01:19:47;;;;;;;6.40;3.72;;;;;;;24.16;51.36;99500.19;5073134;28;20108;-80
2021/08/08 01:22:12;;;;;;;4.80;3.30;;;;;;;23.93;51.98;99509.50;5071799;28;20051;-79
2021/08/08 01:24:38;;;;;;;6.72;3.42;;;;;;;24.16;51.58;99507.78;5071833;28;20146;-79
2021/08/08 01:27:05;;;;;;;7.85;3.03;;;;;;;24.40;50.62;99500.03;5071575;28;20024;-79
2021/08/08 01:29:32;;;;;;;3.78;2.63;;;;;;;24.30;50.77;99507.44;5071614;28;20029;-79
2021/08/08 01:31:58;;;;;;;6.60;2.47;;;;;;;24.21;51.31;99499.69;5071580;28;20483;-78
2021/08/08 01:34:23;;;;;;;6.47;2.75;;;;;;;24.38;50.82;99502.50;5072511;28;20084;-92
2021/08/08 01:36:49;;;;;;;5.07;2.83;;;;;;;24.48;50.51;99507.00;5071488;28;20055;-79
2021/08/08 01:39:18;;;;;;;3.22;2.25;;;;;;;24.37;51.05;99512.09;5071996;28;20020;-79
2021/08/08 01:41:52;;;;;;;5.40;2.28;;;;;;;24.29;51.07;99508.66;5073084;28;20029;-79
2021/08/08 01:44:24;;;;;;;3.50;1.80;;;;;;;24.46;50.82;99506.69;5072767;28;20035;-80
2021/08/08 01:46:54;;;;;;;6.28;1.90;;;;;;;24.07;51.70;99511.97;5071724;28;20097;-80
2021/08/08 01:49:26;;;;;;;3.15;1.70;;;;;;;24.25;50.99;99505.94;5072886;28;20103;-79
2021/08/08 01:51:54;;;;;;;2.72;1.40;;;;;;;24.12;51.41;99513.44;5072954;28;20406;-79
2021/08/08 01:54:20;;;;;;;3.85;1.60;;;;;;;24.11;51.54;99511.88;5072937;28;20043;-79
2021/08/08 01:56:46;;;;;;;1.85;1.20;;;;;;;24.10;51.48;99510.28;5072296;28;20111;-79
2021/08/08 01:59:13;;;;;;;3.45;1.50;;;;;;;24.03;51.55;99516.03;5070045;28;20091;-79
2021/08/08 02:01:40;;;;;;;2.65;1.58;;;;;;;24.08;51.70;99513.53;5069205;28;20029;-89
2021/08/08 02:04:19;;;;;;;3.88;1.73;;;;;;;23.90;52.02;99517.97;5071601;28;20102;-80
2021/08/08 02:06:46;;;;;;;1.17;1.05;;;;;;;23.98;52.27;99519.38;5073431;28;20029;-90
2021/08/08 02:09:11;;;;;;;4.43;1.83;;;;;;;23.93;52.31;99517.84;5071674;28;20035;-78
2021/08/08 02:11:37;;;;;;;2.28;1.45;;;;;;;24.10;51.63;99521.44;5072625;28;20491;-79
2021/08/08 02:14:03;;;;;;;3.45;1.75;;;;;;;23.88;52.31;99517.59;5072675;28;20060;-78
2021/08/08 02:16:31;;;;;;;2.20;1.23;;;;;;;23.43;53.92;99521.72;5072623;28;20096;-79
2021/08/08 02:18:56;;;;;;;4.15;1.90;;;;;;;23.63;53.26;99521.72;5072540;28;20095;-79
2021/08/08 02:21:22;;;;;;;4.88;1.70;;;;;;;23.77;52.93;99523.41;5072471;28;20524;-79
2021/08/08 02:23:47;;;;;;;2.55;1.50;;;;;;;23.82;52.68;99527.69;5071299;28;20033;-78
2021/08/08 02:26:13;;;;;;;3.88;1.90;;;;;;;24.14;51.53;99524.19;5071426;28;20024;-79
2021/08/08 02:28:38;;;;;;;5.22;2.20;;;;;;;24.06;51.75;99515.19;5071310;28;20134;-80
2021/08/08 02:31:04;;;;;;;3.67;1.92;;;;;;;24.18;51.43;99530.44;5072496;28;20111;-80
2021/08/08 02:33:30;;;;;;;4.65;2.60;;;;;;;24.47;50.70;99522.97;5070876;28;20048;-80
2021/08/08 02:35:55;;;;;;;4.75;2.90;;;;;;;24.12;51.20;99524.63;5072312;28;20016;-90
2021/08/08 02:38:21;;;;;;;6.50;3.10;;;;;;;24.34;50.64;99530.50;5071327;28;20556;-80
2021/08/08 02:40:46;;;;;;;5.25;2.35;;;;;;;24.23;51.16;99527.94;5072912;28;20020;-78
2021/08/08 02:43:12;;;;;;;5.20;2.88;;;;;;;24.28;50.84;99527.41;5072469;28;20507;-80
2021/08/08 02:45:38;;;;;;;8.18;2.70;;;;;;;24.22;50.91;99523.56;5071242;28;20025;-79
2021/08/08 02:48:04;;;;;;;3.33;2.50;;;;;;;24.13;51.46;99526.19;5072306;28;20052;-79
2021/08/08 02:50:29;;;;;;;2.83;2.00;;;;;;;24.03;51.89;99528.00;5070851;28;20040;-78
2021/08/08 02:52:55;;;;;;;5.82;2.50;;;;;;;23.78;52.63;99531.34;5072336;28;20036;-79
2021/08/08 02:55:21;;;;;;;5.78;2.85;;;;;;;23.95;51.84;99536.94;5071009;28;20029;-79
2021/08/08 02:57:47;;;;;;;3.45;1.88;;;;;;;24.11;51.23;99541.78;5070038;28;20032;-79
2021/08/08 03:00:13;;;;;;;6.72;2.78;;;;;;;24.28;50.85;99533.00;5072314;28;20055;-91
2021/08/08 03:02:39;;;;;;;5.82;2.60;;;;;;;24.22;50.95;99539.53;5070963;28;20067;-80
2021/08/08 03:05:05;;;;;;;5.50;2.33;;;;;;;24.29;50.40;99533.78;5070932;28;20093;-78
2021/08/08 03:07:31;;;;;;;3.17;2.08;;;;;;;24.13;51.32;99537.34;5070875;28;20024;-79
2021/08/08 03:09:56;;;;;;;4.28;2.50;;;;;;;24.03;51.63;99539.16;5074086;28;20031;-80
2021/08/08 03:12:22;;;;;;;4.40;2.03;;;;;;;24.04;51.48;99545.53;5076018;28;20035;-90
2021/08/08 03:14:48;;;;;;;4.78;2.50;;;;;;;23.86;52.00;99548.69;5075820;28;20035;-79
2021/08/08 03:17:13;;;;;;;4.18;2.22;;;;;;;24.23;50.72;99546.69;5074571;28;20055;-79
2021/08/08 03:19:39;;;;;;;5.22;2.85;;;;;;;24.11;50.75;99545.38;5075985;28;20083;-78
2021/08/08 03:22:06;;;;;;;7.55;1.95;;;;;;;24.08;51.25;99546.22;5074224;28;20024;-78
2021/08/08 03:24:31;;;;;;;4.63;2.65;;;;;;;24.21;50.54;99547.13;5075363;28;20024;-78
2021/08/08 03:26:57;;;;;;;3.92;1.95;;;;;;;24.05;51.15;99547.09;5075430;28;20108;-78
2021/08/08 03:29:23;;;;;;;4.43;2.08;;;;;;;23.90;51.44;99551.44;5075128;28;20060;-78
2021/08/08 03:31:48;;;;;;;3.95;2.60;;;;;;;23.94;51.60;99557.69;5073860;28;20097;-79
2021/08/08 03:34:14;;;;;;;4.82;2.65;;;;;;;24.21;50.77;99544.34;5075187;28;20052;-79
2021/08/08 03:36:43;;;;;;;4.88;2.40;;;;;;;24.01;51.63;99549.19;5073979;28;20024;-78
2021/08/08 03:39:09;;;;;;;5.13;2.50;;;;;;;23.82;51.55;99553.59;5075253;28;20024;-89
2021/08/08 03:41:34;;;;;;;4.60;2.78;;;;;;;23.93;51.57;99551.34;5075053;28;20102;-78
2021/08/08 03:44:00;;;;;;;5.35;2.25;;;;;;;23.89;51.92;99555.44;5073662;28;20029;-80
2021/08/08 03:46:26;;;;;;;5.32;2.47;;;;;;;23.93;51.74;99562.50;5075440;28;20127;-80
2021/08/08 03:48:51;;;;;;;6.25;2.83;;;;;;;24.01;51.11;99563.13;5075304;28;20078;-81
2021/08/08 03:51:17;;;;;;;4.28;2.20;;;;;;;24.26;50.41;99557.78;5075059;28;20048;-80
2021/08/08 03:53:43;;;;;;;5.18;2.33;;;;;;;24.15;51.00;99550.84;5107358;28;20029;-80
2021/08/08 03:56:08;;;;;;;4.00;2.50;;;;;;;24.23;50.70;99569.00;5074752;28;20063;-80
2021/08/08 03:58:34;;;;;;;5.60;2.53;;;;;;;24.05;51.17;99569.44;5073631;28;20020;-90
2021/08/08 04:01:01;;;;;;;3.83;2.40;;;;;;;24.30;50.20;99575.22;5073307;28;20647;-79
2021/08/08 04:03:28;;;;;;;5.22;2.60;;;;;;;24.22;50.91;99564.66;5073351;28;20087;-80
2021/08/08 04:05:54;;;;;;;6.57;2.58;;;;;;;24.23;50.73;99572.59;5073213;28;20024;-79
2021/08/08 04:08:20;;;;;;;5.07;2.15;;;;;;;23.88;51.75;99571.41;5073444;28;20020;-80
2021/08/08 04:10:45;;;;;;;5.18;1.80;;;;;;;23.96;51.47;99570.03;5074621;28;20024;-79
2021/08/08 04:13:11;;;;;;;4.65;2.28;;;;;;;24.10;51.29;99571.69;5074345;28;20500;-92
2021/08/08 04:15:37;;;;;;;3.75;2.10;;;;;;;24.08;50.93;99576.91;5073418;28;20024;-79
2021/08/08 04:18:02;;;;;;;3.75;1.85;;;;;;;24.06;51.12;99580.16;5074429;28;20028;-88
2021/08/08 04:20:28;;;;;;;7.05;2.45;;;;;;;24.06;51.02;99582.94;5074170;28;20024;-79
2021/08/08 04:22:53;;;;;;;4.13;2.17;;;;;;;24.13;50.71;99578.41;5073426;28;20086;-89
2021/08/08 04:25:19;;;;;;;5.43;2.00;;;;;;;24.13;51.28;99578.41;5073099;28;20106;-80
2021/08/08 04:27:45;;;;;;;6.28;1.70;;;;;;;24.02;51.34;99582.22;5074410;28;20364;-79
2021/08/08 04:30:11;;;;;;;2.40;1.50;;;;;;;23.99;51.41;99580.31;5074111;28;20082;-79
2021/08/08 04:32:37;;;;;;;2.08;1.38;;;;;;;24.13;50.90;99587.56;5073824;28;20020;-79
2021/08/08 04:35:03;;;;;;;4.63;1.50;;;;;;;24.03;51.22;99588.56;5073973;28;20104;-78
2021/08/08 04:37:28;;;;;;;3.13;1.30;;;;;;;23.94;51.50;99596.75;5074117;28;20506;-79
2021/08/08 04:39:54;;;;;;;2.75;1.20;;;;;;;23.88;52.03;99598.47;5072738;28;20125;-78
2021/08/08 04:42:19;;;;;;;3.38;1.33;;;;;;;23.89;52.04;99606.44;5072942;28;20032;-79
2021/08/08 04:44:45;;;;;;;2.78;1.35;;;;;;;24.04;51.21;99606.91;5106505;28;20024;-89
2021/08/08 04:47:11;;;;;;;3.88;1.58;;;;;;;24.03;51.06;99608.13;5074178;28;20420;-79
2021/08/08 04:49:36;;;;;;;3.38;1.15;;;;;;;23.71;52.29;99598.41;5072643;28;20074;-80
2021/08/08 04:52:03;;;;;;;3.95;1.52;;;;;;;23.67;52.66;99614.44;5072838;28;20021;-80
2021/08/08 04:54:29;;;;;;;6.47;1.63;;;;;;;24.08;51.26;99610.41;5072408;28;20024;-80
2021/08/08 04:56:54;;;;;;;3.08;1.55;;;;;;;23.79;52.18;99601.84;5072649;28;20521;-89
2021/08/08 04:59:20;;;;;;;2.75;1.30;;;;;;;23.67;52.63;99620.03;5073730;28;20055;-79
2021/08/08 05:01:46;;;;;;;2.22;1.27;;;;;;;23.55;53.17;99609.47;5073529;28;20024;-78
2021/08/08 05:04:11;;;;;;;2.83;1.33;;;;;;;23.74;52.38;99616.31;5073685;28;20551;-80
2021/08/08 05:06:40;;;;;;;4.07;1.30;;;;;;;23.86;52.10;99618.44;5071859;28;20028;-79
2021/08/08 05:09:06;;;;;;;2.25;1.40;;;;;;;23.73;52.17;99615.53;5069788;28;20026;-79
2021/08/08 05:11:32;;;;;;;4.00;1.15;;;;;;;23.96;51.54;99622.25;5073005;28;20103;-79
2021/08/08 05:13:59;;;;;;;4.25;1.30;;;;;;;24.02;51.15;99620.50;5071564;28;20383;-79
2021/08/08 05:16:25;;;;;;;2.13;1.20;;;;;;;23.84;51.48;99614.50;5072458;28;20032;-88
2021/08/08 05:18:51;;;;;;;3.20;1.10;;;;;;;23.65;52.37;99624.44;5074500;28;20024;-89
2021/08/08 05:21:17;;;;;;;3.65;1.23;;;;;;;23.95;51.40;99624.22;5073118;28;20082;-79
2021/08/08 05:23:43;;;;;;;2.22;1.33;;;;;;;24.01;50.91;99632.88;5073274;28;20477;-79
2021/08/08 05:26:08;;;;;;;4.55;1.35;;;;;;;23.95;51.37;99632.59;5073451;28;20440;-92
2021/08/08 05:28:34;;;;;;;1.83;1.02;;;;;;;23.90;51.41;99635.13;5073438;28;20041;-90
2021/08/08 05:31:00;;;;;;;2.67;1.20;;;;;;;23.90;51.61;99632.31;5074285;28;20032;-82
2021/08/08 05:33:25;;;;;;;2.65;1.10;;;;;;;23.52;52.74;99633.44;5071084;28;20063;-80
2021/08/08 05:35:52;;;;;;;3.17;1.27;;;;;;;23.89;51.56;99644.72;5071842;28;20089;-80
2021/08/08 05:38:18;;;;;;;1.23;0.90;;;;;;;23.47;52.80;99642.28;5071961;28;20055;-82
2021/08/08 05:40:43;;;;;;;1.98;0.93;;;;;;;23.85;51.73;99650.34;5071840;28;20024;-79
2021/08/08 05:43:09;;;;;;;4.55;1.65;;;;;;;23.82;51.96;99647.63;5072879;28;20065;-79
2021/08/08 05:45:35;;;;;;;3.80;1.02;;;;;;;23.69;52.20;99642.69;5071910;28;20029;-79
2021/08/08 05:48:00;;;;;;;4.93;1.20;;;;;;;23.47;52.77;99652.66;5072960;28;20056;-80
2021/08/08 05:50:26;;;;;;;2.78;1.30;;;;;;;24.00;50.92;99664.78;5072198;28;20028;-91
2021/08/08 05:52:52;;;;;;;4.38;1.33;;;;;;;24.05;51.14;99667.09;5071496;28;20058;-79
2021/08/08 05:55:19;;;;;;;1.45;0.68;;;;;;;23.92;51.41;99657.78;5071580;28;20467;-79
2021/08/08 05:57:45;;;;;;;1.83;0.80;;;;;;;23.64;52.40;99667.50;5071354;28;20025;-79
2021/08/08 06:00:11;;;;;;;4.13;1.13;;;;;;;23.82;52.15;99667.94;5071916;28;20040;-79
2021/08/08 06:02:38;;;;;;;3.80;1.15;;;;;;;23.96;51.87;99673.25;5073533;28;20467;-79
2021/08/08 06:05:04;;;;;;;3.38;1.42;;;;;;;23.71;52.46;99672.94;5072671;28;20036;-84
2021/08/08 06:07:29;;;;;;;1.60;0.88;;;;;;;23.95;51.71;99670.84;5071334;28;20032;-78
2021/08/08 06:09:55;;;;;;;2.10;0.95;;;;;;;24.01;51.56;99674.72;5072779;28;20118;-79
2021/08/08 06:12:21;;;;;;;3.75;1.00;;;;;;;23.92;52.51;99688.47;5072806;28;20119;-79
2021/08/08 06:14:46;;;;;;;4.25;1.13;;;;;;;23.92;52.25;99682.88;5071281;28;20116;-79
2021/08/08 06:17:12;;;;;;;2.83;1.27;;;;;;;24.00;52.04;99692.69;5071259;28;20028;-79
2021/08/08 06:19:38;;;;;;;4.95;1.45;;;;;;;24.01;51.69;99689.47;5072939;28;20021;-79
2021/08/08 06:22:03;;;;;;;4.13;1.50;;;;;;;23.96;51.98;99700.34;5072628;28;20027;-79
2021/08/08 06:24:29;;;;;;;2.72;1.13;;;;;;;23.91;52.17;99698.06;5072702;28;20051;-79
2021/08/08 06:26:55;;;;;;;7.85;2.30;;;;;;;23.84;52.22;99703.78;5071311;28;20020;-80
2021/08/08 06:29:21;;;;;;;2.60;1.20;;;;;;;24.03;51.55;99703.78;5071440;28;20087;-79
2021/08/08 06:31:46;;;;;;;2.25;1.20;;;;;;;24.05;51.15;99714.50;5071159;28;20025;-87
2021/08/08 06:34:12;;;;;;;3.08;1.35;;;;;;;23.87;51.42;99711.28;5071833;28;20051;-79
2021/08/08 06:36:37;;;;;;;6.10;2.67;;;;;;;23.75;52.04;99713.50;5071388;28;20036;-79
2021/08/08 06:39:05;;;;;;;4.57;1.40;;;;;;;23.81;51.73;99713.78;5072401;28;20032;-80
2021/08/08 06:41:32;;;;;;;6.15;1.50;;;;;;;23.71;52.11;99709.97;5071207;28;20493;-80
2021/08/08 06:43:58;;;;;;;7.85;1.88;;;;;;;23.48;52.73;99716.34;5073647;28;20035;-81
2021/08/08 06:46:24;;;;;;;3.95;1.35;;;;;;;23.54;53.11;99730.59;5075022;28;20055;-80
2021/08/08 06:48:50;;;;;;;6.85;1.60;;;;;;;23.71;52.10;99729.50;5076089;28;20025;-79
2021/08/08 06:51:16;;;;;;;2.47;1.40;;;;;;;23.75;52.14;99723.88;5074878;28;20475;-80
2021/08/08 06:53:41;;;;;;;3.50;1.58;;;;;;;23.71;51.98;99732.28;5076146;28;20387;-79
2021/08/08 06:56:07;;;;;;;3.03;1.38;;;;;;;23.82;51.65;99731.31;5074891;28;20039;-80
2021/08/08 06:58:33;;;;;;;7.13;2.42;;;;;;;23.72;51.96;99736.63;5074851;28;20021;-80
2021/08/08 07:00:58;;;;;;;1.92;1.15;;;;;;;23.61;52.43;99730.47;5075813;28;20479;-80
2021/08/08 07:03:24;;;;;;;4.10;1.63;;;;;;;23.63;52.35;99739.22;5074712;28;20368;-80
2021/08/08 07:05:50;;;;;;;2.08;1.10;;;;;;;23.68;52.27;99737.94;5074474;28;20021;-78
2021/08/08 07:08:15;;;;;;;3.63;1.55;;;;;;;23.34;53.11;99754.81;5076127;28;20158;-80
2021/08/08 07:10:41;;;;;;;4.88;1.58;;;;;;;23.79;51.98;99749.66;5076040;28;20047;-88
2021/08/08 07:13:07;;;;;;;2.67;1.50;;;;;;;23.56;52.76;99755.25;5075963;28;20032;-79
2021/08/08 07:15:32;;;;;;;6.45;1.80;;;;;;;23.66;52.04;99760.69;5074124;28;20495;-78
2021/08/08 07:17:58;;;;;;;3.40;1.25;;;;;;;23.36;52.96;99758.78;5075511;28;20033;-79
2021/08/08 07:20:24;;;;;;;3.40;1.40;;;;;;;23.63;52.30;99760.72;5074488;28;20124;-79
2021/08/08 07:22:49;;;;;;;2.85;1.35;;;;;;;23.54;52.74;99758.47;5075450;28;20033;-79
2021/08/08 07:25:15;;;;;;;2.42;1.23;;;;;;;23.82;51.51;99767.56;5074405;28;20035;-79
2021/08/08 07:27:40;;;;;;;3.92;1.25;;;;;;;23.63;52.13;99771.88;5075151;28;20036;-77
2021/08/08 07:30:07;;;;;;;5.68;1.80;;;;;;;23.95;51.13;99765.72;5074330;28;20028;-88
2021/08/08 07:32:32;;;;;;;1.63;0.80;;;;;;;23.54;52.18;99775.19;5075178;28;20024;-77
2021/08/08 07:34:58;;;;;;;3.20;0.82;;;;;;;23.70;52.03;99766.97;5075204;28;20082;-86
2021/08/08 07:37:24;;;;;;;2.65;1.30;;;;;;;23.85;51.51;99770.28;5073807;28;20055;-78
2021/08/08 07:39:49;;;;;;;4.45;1.30;;;;;;;23.92;51.27;99766.59;5073900;28;20052;-80
2021/08/08 07:42:15;;;;;;;2.08;1.15;;;;;;;23.78;51.73;99770.41;5075389;28;20035;-79
2021/08/08 07:44:41;;;;;;;4.20;1.30;;;;;;;23.86;51.75;99782.22;5074063;28;20028;-79
2021/08/08 07:47:06;;;;;;;2.55;1.02;;;;;;;23.62;52.72;99775.88;5075352;28;20487;-80
2021/08/08 07:49:32;;;;;;;3.70;1.38;;;;;;;23.79;52.13;99797.09;5075618;28;20032;-79
2021/08/08 07:51:58;;;;;;;4.43;1.92;;;;;;;23.85;51.79;99795.38;5075080;28;20040;-80
2021/08/08 07:54:23;;;;;;;2.35;1.10;;;;;;;23.99;51.53;99797.91;5074383;28;20075;-79
2021/08/08 07:56:49;;;;;;;2.60;1.25;;;;;;;23.86;52.14;99796.19;5075673;28;20028;-90
2021/08/08 07:59:15;;;;;;;2.92;1.30;;;;;;;23.98;52.22;99798.34;5075632;28;20024;-80
2021/08/08 08:01:43;;;;;;;3.28;1.40;;;;;;;24.19;52.19;99791.59;5075287;28;20026;-79
2021/08/08 08:04:09;;;;;;;3.78;1.63;;;;;;;24.33;52.21;99806.09;5073667;28;20035;-79
2021/08/08 08:06:35;;;;;;;2.20;1.50;;;;;;;24.37;51.39;99794.03;5074951;28;20107;-79
2021/08/08 08:09:01;;;;;;;3.28;1.95;;;;;;;24.22;51.86;99807.47;5075492;28;20146;-79
2021/08/08 08:11:26;;;;;;;5.07;2.13;;;;;;;24.16;52.08;99809.97;5075134;28;20031;-79
2021/08/08 08:13:52;;;;;;;2.47;1.60;;;;;;;23.83;53.00;99822.16;5074974;28;20020;-91
2021/08/08 08:16:18;;;;;;;3.67;1.95;;;;;;;24.13;52.16;99826.78;5073794;28;20052;-90
2021/08/08 08:18:44;;;;;;;3.38;1.48;;;;;;;24.39;51.58;99816.72;5073685;28;20055;-80
2021/08/08 08:21:09;;;;;;;3.35;1.40;;;;;;;23.66;53.63;99816.44;5073702;28;20079;-79
2021/08/08 08:23:35;;;;;;;2.08;1.88;;;;;;;24.07;52.54;99816.09;5074741;28;20074;-78
2021/08/08 08:26:00;;;;;;;4.68;1.90;;;;;;;24.21;52.43;99812.25;5073135;28;20016;-89
2021/08/08 08:28:32;;;;;;;7.53;2.22;;;;;;;24.57;51.53;99819.97;5074438;28;20028;-88
2021/08/08 08:30:58;;;;;;;2.50;1.48;;;;;;;23.99;52.84;99813.88;5074553;28;20028;-80
2021/08/08 08:33:23;;;;;;;3.92;1.70;;;;;;;24.52;51.12;99826.03;5074288;28;20119;-89
2021/08/08 08:35:49;;;;;;;4.05;1.95;;;;;;;24.51;50.99;99830.06;5074486;28;20088;-80
2021/08/08 08:38:16;;;;;;;3.00;1.40;;;;;;;24.65;50.38;99829.78;5072983;28;20544;-79
2021/08/08 08:40:43;;;;;;;5.05;2.15;;;;;;;24.55;50.70;99831.53;5073091;28;20024;-89
2021/08/08 08:43:09;;;;;;;4.05;1.50;;;;;;;24.68;50.23;99831.69;5073841;28;20028;-90
2021/08/08 08:45:44;;;;;;;2.97;1.15;;;;;;;24.30;50.98;99837.59;5072710;28;20024;-87
2021/08/08 08:48:10;;;;;;;2.05;1.10;;;;;;;24.47;50.18;99837.72;5072958;28;20031;-82
2021/08/08 08:50:36;;;;;;;2.40;1.10;;;;;;;24.49;50.16;99840.88;5074215;28;20025;-78
2021/08/08 08:53:03;;;;;;;1.95;1.52;;;;;;;23.99;51.25;99852.94;5074194;28;20036;-79
2021/08/08 08:55:29;;;;;;;3.15;1.48;;;;;;;24.09;50.76;99851.94;5072721;28;20036;-87
2021/08/08 08:57:56;;;;;;;3.30;1.60;;;;;;;23.92;50.53;99864.22;5073785;28;20032;-78
2021/08/08 09:00:23;;;;;;;4.53;1.90;;;;;;;24.31;49.74;99861.50;5073728;28;20483;-78
2021/08/08 09:02:50;;;;;;;3.45;1.65;;;;;;;24.27;49.64;99879.56;5072549;28;20029;-88
2021/08/08 09:05:16;;;;;;;2.70;1.50;;;;;;;24.01;50.26;99870.03;5073823;28;20047;-79
2021/08/08 09:07:43;;;;;;;3.97;1.80;;;;;;;23.63;51.15;99877.84;5074141;28;20467;-79
2021/08/08 09:10:11;;;;;;;2.30;1.75;;;;;;;23.98;50.09;99879.25;5074059;28;20107;-79
2021/08/08 09:12:36;;;;;;;3.58;1.92;;;;;;;23.43;51.40;99880.53;5072466;28;20059;-80
2021/08/08 09:15:04;;;;;;;6.80;2.30;;;;;;;23.91;49.94;99876.59;5073815;28;20048;-79
2021/08/08 09:17:36;;;;;;;7.25;2.10;;;;;;;23.98;50.07;99887.63;5072308;28;20107;-80
2021/08/08 09:20:12;;;;;;;5.60;2.15;;;;;;;24.01;49.48;99892.34;5073963;28;20025;-88
2021/08/08 09:22:39;;;;;;;5.13;1.95;;;;;;;24.01;49.32;99889.56;5073799;28;20025;-90
2021/08/08 09:25:07;;;;;;;9.60;3.00;;;;;;;23.92;49.05;99890.13;5072314;28;20024;-88
2021/08/08 09:27:38;;;;;;;7.10;2.70;;;;;;;23.97;48.87;99897.22;5072138;28;20027;-78
2021/08/08 09:30:16;;;;;;;5.93;2.63;;;;;;;24.07;48.95;99890.66;5073474;28;20082;-82
2021/08/08 09:32:41;;;;;;;3.65;1.98;;;;;;;23.64;49.95;99902.50;5073653;28;20031;-79
2021/08/08 09:35:19;;;;;;;5.22;2.30;;;;;;;24.39;48.34;99903.28;5071742;28;20426;-80
2021/08/08 09:38:00;;;;;;;8.95;2.28;;;;;;;24.51;48.05;99913.84;5072345;28;20115;-89
2021/08/08 09:40:25;;;;;;;5.10;2.65;;;;;;;23.90;49.36;99919.66;5072426;28;20032;-79
2021/08/08 09:42:52;;;;;;;6.03;2.75;;;;;;;24.17;48.51;99925.97;5072252;28;20433;-88
2021/08/08 09:45:18;;;;;;;7.88;3.08;;;;;;;23.97;48.37;99927.91;5072252;28;20028;-91
2021/08/08 09:47:48;;;;;;;10.70;3.28;;;;;;;23.54;48.88;99934.91;5073245;28;20047;-79
2021/08/08 09:50:18;;;;;;;11.18;3.13;;;;;;;23.98;47.72;99940.66;5073325;28;20029;-79
2021/08/08 09:52:55;;;;;;;7.65;3.17;;;;;;;24.03;47.51;99943.75;5071788;28;20486;-78
2021/08/08 09:55:27;;;;;;;6.80;3.67;;;;;;;24.22;47.12;99941.44;5073090;28;20025;-86
2021/08/08 09:57:53;;;;;;;11.38;3.90;;;;;;;24.51;46.53;99947.34;5073190;28;20516;-87
2021/08/08 10:00:35;;;;;;;10.85;3.95;;;;;;;24.30;46.85;99951.25;5072215;28;20599;-90
2021/08/08 10:03:02;;;;;;;10.52;3.95;;;;;;;23.96;47.72;99949.44;5073219;28;20036;-80
2021/08/08 10:05:29;;;;;;;6.32;3.47;;;;;;;24.37;46.57;99955.97;5073269;28;20105;-88
2021/08/08 10:07:56;;;;;;;8.82;3.95;;;;;;;24.49;46.15;99949.78;5072827;28;20021;-79
2021/08/08 10:10:22;;;;;;;11.25;3.50;;;;;;;24.07;47.21;99960.44;5071749;28;20441;-79
2021/08/08 10:12:57;;;;;;;9.02;3.72;;;;;;;24.26;46.20;99970.88;5073038;28;20375;-79
2021/08/08 10:15:23;;;;;;;7.95;3.75;;;;;;;24.49;45.88;99961.72;5073048;28;20020;-79
2021/08/08 10:17:50;;;;;;;9.00;3.35;;;;;;;24.79;45.15;99971.94;5072581;28;20115;-77
2021/08/08 10:20:16;;;;;;;9.10;3.60;;;;;;;24.67;45.33;99980.94;5077318;28;20043;-77
2021/08/08 10:22:42;;;;;;;5.97;3.20;;;;;;;24.99;44.56;99974.75;5077401;28;20107;-78
2021/08/08 10:25:09;;;;;;;7.85;2.97;;;;;;;24.85;45.26;99970.22;5077003;28;20024;-82
2021/08/08 10:27:35;;;;;;;8.32;3.47;;;;;;;24.92;44.61;99972.09;5075488;28;20115;-78
2021/08/08 10:30:03;;;;;;;8.57;3.15;;;;;;;25.03;44.22;99977.47;5077242;28;20029;-78
2021/08/08 10:32:29;;;;;;;6.88;3.45;;;;;;;25.13;44.00;99987.66;5077050;28;20422;-78
2021/08/08 10:34:55;;;;;;;9.63;3.45;;;;;;;25.08;43.38;99996.53;5074957;28;20403;-77
2021/08/08 10:37:25;;;;;;;10.02;3.92;;;;;;;25.09;43.65;99986.94;5076409;28;20029;-78
2021/08/08 10:39:52;;;;;;;;;;;;;;;24.66;44.42;99987.75;5076793;28;20046;-79
2021/08/08 10:42:19;;;;;;;5.97;3.15;;;;;;;25.11;43.31;99984.53;5075596;28;19913;-86
2021/08/08 10:44:53;;;;;;;7.03;2.53;;;;;;;25.24;43.05;99973.47;5075234;28;20112;-88
2021/08/08 10:47:30;;;;;;;6.70;2.40;;;;;;;25.46;42.35;99989.34;5075419;28;20025;-85
2021/08/08 10:50:14;;;;;;;3.58;2.45;;;;;;;25.33;42.01;99996.06;5076912;28;20020;-90
2021/08/08 10:52:44;;;;;;;6.10;2.85;;;;;;;25.44;41.61;99999.41;5075489;28;20474;-79
2021/08/08 10:55:30;;;;;;;5.68;2.70;;;;;;;25.97;40.82;100001.03;5075269;28;20032;-80
2021/08/08 10:57:56;;;;;;;5.05;2.65;;;;;;;25.99;40.98;100015.38;5074733;28;20028;-86
2021/08/08 11:00:31;;;;;;;6.95;2.95;;;;;;;26.15;40.25;100022.22;5076193;28;20021;-87
2021/08/08 11:02:57;;;;;;;6.38;2.40;;;;;;;25.70;41.16;100009.63;5075078;28;20032;-88
2021/08/08 11:05:22;;;;;;;5.47;2.45;;;;;;;26.32;39.76;100014.59;5076122;28;20031;-80
2021/08/08 11:07:48;;;;;;;6.07;2.38;;;;;;;26.76;38.77;100027.13;5074942;28;20070;-80
2021/08/08 11:10:28;;;;;;;8.45;2.67;;;;;;;26.20;39.13;100024.47;5075045;28;20035;-80
2021/08/08 11:12:54;;;;;;;3.92;1.77;;;;;;;26.33;39.15;100019.75;5075978;28;20023;-79
2021/08/08 11:15:33;;;;;;;14.98;2.90;;;;;;;26.75;38.66;100031.13;5075799;28;20059;-80
2021/08/08 11:18:00;;;;;;;4.22;2.15;;;;;;;26.63;38.88;100031.84;5074900;28;20032;-79
2021/08/08 11:20:29;;;;;;;11.68;2.97;;;;;;;26.84;38.73;100034.09;5074848;28;20513;-83
2021/08/08 11:22:58;;;;;;;7.32;2.03;;;;;;;26.38;38.26;100038.84;5075240;28;20100;-79
2021/08/08 11:25:26;;;;;;;5.65;2.42;;;;;;;26.49;37.97;100041.41;5074580;28;20557;-78
2021/08/08 11:27:55;;;;;;;10.18;3.15;;;;;;;26.72;37.83;100046.03;5075635;28;20072;-79
2021/08/08 11:30:21;;;;;;;11.53;3.40;;;;;;;26.58;38.67;100047.16;5073161;28;20036;-81
2021/08/08 11:32:53;;;;;;;11.50;2.08;;;;;;;26.75;38.08;100048.75;5075347;28;20021;-86